Time;durP1;ratioP1;P1;durP2;ratioP2;P2;SDS_P1;SDS_P2;PMS_P1;PMS_P2;Temp;Humidity;BMP_temperature;BMP_pressure;BME280_temperature;BME280_humidity;BME280_pressure;Samples;Min_cycle;Max_cycle;Signal;HPM_P1;HPM_P2
2023/04/06 00:02:26;;;;;;;32.60;16.88;;;;;;;;;;8364121;28;20068;-80
2023/04/06 00:06:31;;;;;;;32.65;18.10;;;;;;;;;;8364225;28;20045;-80
2023/04/06 00:10:34;;;;;;;31.70;17.83;;;;;;;;;;8363746;28;20047;-79
2023/04/06 00:14:37;;;;;;;33.72;18.52;;;;;;;;;;8363970;28;20047;-78
2023/04/06 00:18:40;;;;;;;43.05;20.88;;;;;;;;;;8363244;28;20067;-80
2023/04/06 00:22:45;;;;;;;41.42;21.50;;;;;;;;;;8363836;28;20098;-78
2023/04/06 00:26:48;;;;;;;38.83;19.92;;;;;;;;;;8362951;28;20477;-79
2023/04/06 00:30:52;;;;;;;33.20;18.75;;;;;;;;;;8363572;28;20067;-78
2023/04/06 00:34:55;;;;;;;34.08;18.48;;;;;;;;;;8363148;28;20041;-78
2023/04/06 00:38:59;;;;;;;32.35;18.40;;;;;;;;;;8363270;28;20049;-80
2023/04/06 00:43:02;;;;;;;37.63;19.95;;;;;;;;;;8362418;28;20527;-83
2023/04/06 00:47:05;;;;;;;33.00;17.73;;;;;;;;;;8362513;28;20057;-77
2023/04/06 00:51:07;;;;;;;33.47;17.55;;;;;;;;;;8362421;28;20056;-83
2023/04/06 00:55:12;;;;;;;30.50;17.15;;;;;;;;;;8362949;28;20052;-80
2023/04/06 00:59:14;;;;;;;30.45;16.67;;;;;;;;;;8362546;28;20504;-80
2023/04/06 01:03:17;;;;;;;28.73;15.15;;;;;;;;;;8362553;28;20041;-79
2023/04/06 01:07:20;;;;;;;53.92;19.42;;;;;;;;;;8362105;28;20448;-81
2023/04/06 01:11:24;;;;;;;33.78;19.42;;;;;;;;;;8361756;28;20048;-79
2023/04/06 01:15:28;;;;;;;33.55;17.30;;;;;;;;;;8361692;28;20056;-84
2023/04/06 01:19:31;;;;;;;36.53;18.55;;;;;;;;;;8362121;28;20045;-81
2023/04/06 01:23:35;;;;;;;35.55;18.23;;;;;;;;;;8361561;28;20044;-82
2023/04/06 01:27:38;;;;;;;37.00;17.95;;;;;;;;;;8362098;28;20040;-78
2023/04/06 01:31:41;;;;;;;29.15;15.20;;;;;;;;;;8361707;28;20075;-79
2023/04/06 01:35:43;;;;;;;34.72;16.98;;;;;;;;;;8361884;28;20482;-79
2023/04/06 01:39:48;;;;;;;34.03;17.33;;;;;;;;;;8361557;28;20049;-80
2023/04/06 01:43:54;;;;;;;35.60;18.48;;;;;;;;;;8361743;28;20044;-80
2023/04/06 01:47:57;;;;;;;31.27;17.35;;;;;;;;;;8361922;28;20053;-78
2023/04/06 01:51:59;;;;;;;37.03;18.60;;;;;;;;;;8361616;28;20057;-79
2023/04/06 01:56:07;;;;;;;40.00;19.48;;;;;;;;;;8361305;28;20052;-80
2023/04/06 02:00:11;;;;;;;40.55;20.90;;;;;;;;;;8349083;28;20473;-80
2023/04/06 02:04:14;;;;;;;42.22;18.98;;;;;;;;;;8361223;28;20049;-78
2023/04/06 02:08:17;;;;;;;36.33;18.52;;;;;;;;;;8361456;28;20044;-78
2023/04/06 02:12:21;;;;;;;31.77;17.05;;;;;;;;;;8361394;28;20049;-77
2023/04/06 02:16:24;;;;;;;40.22;19.73;;;;;;;;;;8360938;28;20110;-79
2023/04/06 02:20:26;;;;;;;39.03;21.38;;;;;;;;;;8360742;28;20485;-77
2023/04/06 02:24:29;;;;;;;42.58;21.73;;;;;;;;;;8366016;28;20076;-77
2023/04/06 02:28:34;;;;;;;40.35;20.02;;;;;;;;;;8366762;28;20090;-78
2023/04/06 02:32:37;;;;;;;46.00;21.67;;;;;;;;;;8367356;28;20048;-79
2023/04/06 02:36:39;;;;;;;53.03;23.92;;;;;;;;;;8366539;28;20045;-78
2023/04/06 02:40:42;;;;;;;50.95;23.67;;;;;;;;;;8366990;28;20469;-80
2023/04/06 02:44:47;;;;;;;38.70;18.70;;;;;;;;;;8366312;28;20052;-78
2023/04/06 02:48:49;;;;;;;45.78;21.05;;;;;;;;;;8366915;28;20477;-78
2023/04/06 02:52:54;;;;;;;50.67;25.40;;;;;;;;;;8322769;28;20038;-79
2023/04/06 02:56:56;;;;;;;45.65;24.90;;;;;;;;;;8334071;28;20552;-83
2023/04/06 03:01:01;;;;;;;46.25;23.70;;;;;;;;;;8331527;28;20049;-78
2023/04/06 03:05:05;;;;;;;38.35;21.88;;;;;;;;;;8356466;28;20037;-85
2023/04/06 03:09:07;;;;;;;35.92;19.55;;;;;;;;;;8366424;28;20051;-84
2023/04/06 03:13:10;;;;;;;46.35;26.17;;;;;;;;;;8365883;28;20040;-79
2023/04/06 03:17:15;;;;;;;57.33;29.33;;;;;;;;;;8338535;28;20119;-79
2023/04/06 03:21:19;;;;;;;48.78;26.17;;;;;;;;;;8342666;28;20048;-79
2023/04/06 03:25:21;;;;;;;53.42;28.30;;;;;;;;;;8358213;28;20052;-79
2023/04/06 03:29:24;;;;;;;53.78;28.80;;;;;;;;;;8357423;28;20046;-84
2023/04/06 03:33:28;;;;;;;59.53;30.73;;;;;;;;;;8339954;28;20052;-80
2023/04/06 03:37:31;;;;;;;62.00;32.17;;;;;;;;;;8350480;28;20451;-83
2023/04/06 03:41:34;;;;;;;76.28;39.78;;;;;;;;;;8322345;28;20049;-82
2023/04/06 03:45:37;;;;;;;72.80;35.97;;;;;;;;;;8329413;28;20049;-82
2023/04/06 03:49:41;;;;;;;72.03;37.72;;;;;;;;;;8333960;28;20045;-84
2023/04/06 03:53:43;;;;;;;70.22;38.00;;;;;;;;;;8364657;28;20099;-82
2023/04/06 03:57:46;;;;;;;62.22;31.88;;;;;;;;;;8364229;28;20049;-79
2023/04/06 04:01:49;;;;;;;57.78;30.20;;;;;;;;;;8364575;28;20049;-79
2023/04/06 04:05:53;;;;;;;56.10;32.03;;;;;;;;;;8363899;28;20052;-81
2023/04/06 04:09:56;;;;;;;69.25;36.60;;;;;;;;;;8364545;28;20045;-80
2023/04/06 04:13:59;;;;;;;60.90;33.65;;;;;;;;;;8332591;28;20048;-84
2023/04/06 04:18:01;;;;;;;73.25;35.08;;;;;;;;;;8343359;28;20053;-80
2023/04/06 04:22:06;;;;;;;70.75;35.30;;;;;;;;;;8317277;28;20049;-79
2023/04/06 04:26:09;;;;;;;63.38;34.30;;;;;;;;;;8363393;28;20049;-84
2023/04/06 04:30:13;;;;;;;75.70;40.90;;;;;;;;;;8363234;28;20048;-82
2023/04/06 04:34:16;;;;;;;72.82;36.45;;;;;;;;;;8363373;28;20049;-81
2023/04/06 04:38:20;;;;;;;68.18;37.50;;;;;;;;;;8363554;28;21752;-81
2023/04/06 04:42:23;;;;;;;112.82;54.80;;;;;;;;;;8363288;28;20041;-79
2023/04/06 04:46:25;;;;;;;134.07;65.00;;;;;;;;;;8334148;28;20046;-80
2023/04/06 04:50:28;;;;;;;80.63;42.85;;;;;;;;;;8344826;28;20045;-79
2023/04/06 04:54:32;;;;;;;65.07;33.75;;;;;;;;;;8341791;28;20045;-79
2023/04/06 04:58:35;;;;;;;55.03;30.55;;;;;;;;;;8355815;28;20060;-84
2023/04/06 05:02:39;;;;;;;66.03;32.15;;;;;;;;;;8355883;28;20049;-83
2023/04/06 05:06:41;;;;;;;57.78;29.55;;;;;;;;;;8356687;28;20083;-85
2023/04/06 05:10:46;;;;;;;53.35;30.00;;;;;;;;;;8362324;28;20045;-82
2023/04/06 05:14:49;;;;;;;50.50;29.35;;;;;;;;;;8325090;28;20121;-80
2023/04/06 05:18:52;;;;;;;55.95;29.63;;;;;;;;;;8359667;28;20423;-80
2023/04/06 05:22:55;;;;;;;50.67;26.67;;;;;;;;;;8361200;28;20470;-80
2023/04/06 05:27:00;;;;;;;49.88;28.02;;;;;;;;;;8323796;28;20076;-80
2023/04/06 05:31:02;;;;;;;48.60;26.13;;;;;;;;;;8336245;28;20050;-79
2023/04/06 05:35:06;;;;;;;49.72;27.27;;;;;;;;;;8361730;28;20045;-79
2023/04/06 05:39:08;;;;;;;48.08;25.50;;;;;;;;;;8349947;28;20107;-81
2023/04/06 05:43:12;;;;;;;44.83;23.67;;;;;;;;;;8326113;28;20045;-81
2023/04/06 05:47:15;;;;;;;40.42;23.27;;;;;;;;;;8314389;28;20045;-81
2023/04/06 05:51:18;;;;;;;43.08;22.67;;;;;;;;;;8339677;28;20053;-80
2023/04/06 05:55:21;;;;;;;51.95;25.10;;;;;;;;;;8325524;28;20489;-81
2023/04/06 05:59:25;;;;;;;40.38;20.48;;;;;;;;;;8345238;28;20434;-80
2023/04/06 06:03:28;;;;;;;38.15;21.30;;;;;;;;;;8337790;28;20053;-81
2023/04/06 06:07:31;;;;;;;35.03;19.88;;;;;;;;;;8367500;28;20044;-81
2023/04/06 06:11:34;;;;;;;39.92;21.48;;;;;;;;;;8366520;28;20045;-81
2023/04/06 06:15:38;;;;;;;40.90;21.58;;;;;;;;;;8366388;28;20118;-80
2023/04/06 06:19:41;;;;;;;34.90;16.17;;;;;;;;;;8367486;28;20041;-80
2023/04/06 06:23:44;;;;;;;36.90;17.95;;;;;;;;;;8367121;28;20056;-84
2023/04/06 06:27:47;;;;;;;36.00;20.30;;;;;;;;;;8352983;28;20099;-79
2023/04/06 06:31:51;;;;;;;28.20;16.77;;;;;;;;;;8348375;28;20120;-80
2023/04/06 06:35:54;;;;;;;33.45;17.30;;;;;;;;;;8366738;28;20060;-79
2023/04/06 06:40:00;;;;;;;29.88;15.98;;;;;;;;;;8365281;28;20499;-81
2023/04/06 06:44:07;;;;;;;28.75;16.02;;;;;;;;;;8366443;28;20552;-80
2023/04/06 06:48:11;;;;;;;27.38;13.77;;;;;;;;;;8366545;28;20037;-80
2023/04/06 06:52:14;;;;;;;22.65;12.98;;;;;;;;;;8341525;28;20049;-81
2023/04/06 06:56:17;;;;;;;22.73;12.65;;;;;;;;;;8340951;28;20136;-81
2023/04/06 07:00:21;;;;;;;22.05;11.48;;;;;;;;;;8327661;28;20140;-81
2023/04/06 07:04:26;;;;;;;20.23;10.48;;;;;;;;;;8364069;28;20048;-81
2023/04/06 07:08:28;;;;;;;17.63;9.88;;;;;;;;;;8364064;28;20049;-83
2023/04/06 07:12:31;;;;;;;17.02;9.27;;;;;;;;;;8365724;28;20048;-82
2023/04/06 07:16:34;;;;;;;13.60;8.32;;;;;;;;;;8356712;28;20061;-80
2023/04/06 07:20:38;;;;;;;14.63;7.28;;;;;;;;;;8338076;28;20045;-85
2023/04/06 07:24:41;;;;;;;11.57;6.57;;;;;;;;;;8348618;28;20116;-84
2023/04/06 07:28:44;;;;;;;10.38;5.25;;;;;;;;;;8354012;28;20041;-83
2023/04/06 07:32:47;;;;;;;11.02;6.32;;;;;;;;;;8326597;28;20042;-85
2023/04/06 07:36:52;;;;;;;12.52;5.68;;;;;;;;;;8358976;28;20048;-86
2023/04/06 07:40:55;;;;;;;24.77;8.82;;;;;;;;;;8359646;28;20047;-86
2023/04/06 07:44:58;;;;;;;15.18;6.63;;;;;;;;;;8364216;28;20135;-86
2023/04/06 07:49:02;;;;;;;6.13;3.80;;;;;;;;;;8355243;28;20740;-83
2023/04/06 07:53:06;;;;;;;11.60;5.50;;;;;;;;;;8362602;28;20556;-80
2023/04/06 07:57:09;;;;;;;5.78;2.65;;;;;;;;;;8363122;28;20080;-82
2023/04/06 08:01:12;;;;;;;12.45;6.22;;;;;;;;;;8364079;28;20126;-80
2023/04/06 08:05:15;;;;;;;9.02;3.67;;;;;;;;;;8363535;28;20045;-79
2023/04/06 08:09:19;;;;;;;10.88;5.45;;;;;;;;;;8351019;28;20041;-78
2023/04/06 08:13:22;;;;;;;6.55;4.30;;;;;;;;;;8363994;28;20489;-79
2023/04/06 08:17:25;;;;;;;7.20;4.10;;;;;;;;;;8363866;28;20144;-81
2023/04/06 08:21:28;;;;;;;8.63;4.38;;;;;;;;;;8363584;28;20041;-85
2023/04/06 08:25:32;;;;;;;4.30;2.28;;;;;;;;;;8323422;28;20400;-82
2023/04/06 08:29:35;;;;;;;8.60;4.10;;;;;;;;;;8314618;28;20051;-79
2023/04/06 08:33:39;;;;;;;9.50;4.30;;;;;;;;;;8343254;28;20034;-79
2023/04/06 08:37:42;;;;;;;11.30;4.57;;;;;;;;;;8355689;28;20165;-80
2023/04/06 08:41:45;;;;;;;7.65;4.60;;;;;;;;;;8361163;28;20040;-80
2023/04/06 08:45:49;;;;;;;11.40;5.88;;;;;;;;;;8362869;28;20045;-80
2023/04/06 08:49:53;;;;;;;9.60;5.70;;;;;;;;;;8334081;28;20401;-79
2023/04/06 08:53:57;;;;;;;15.02;8.05;;;;;;;;;;8361008;28;20386;-80
2023/04/06 08:58:02;;;;;;;10.90;5.97;;;;;;;;;;8362275;28;20057;-80
2023/04/06 09:02:06;;;;;;;15.05;7.53;;;;;;;;;;8362548;28;20051;-80
2023/04/06 09:06:11;;;;;;;13.43;6.85;;;;;;;;;;8338692;28;20144;-79
2023/04/06 09:10:15;;;;;;;19.88;9.90;;;;;;;;;;8362391;28;20562;-80
2023/04/06 09:14:36;;;;;;;13.13;7.07;;;;;;;;;;8355507;28;20041;-80
2023/04/06 09:18:39;;;;;;;11.35;6.35;;;;;;;;;;8352720;28;20180;-80
2023/04/06 09:22:43;;;;;;;14.57;7.00;;;;;;;;;;8339565;28;20461;-80
2023/04/06 09:26:47;;;;;;;11.23;6.18;;;;;;;;;;8361229;28;20102;-80
2023/04/06 09:30:52;;;;;;;12.60;6.97;;;;;;;;;;8361798;28;20511;-80
2023/04/06 09:35:06;;;;;;;11.10;5.78;;;;;;;;;;8353891;28;20147;-79
2023/04/06 09:39:08;;;;;;;10.13;6.00;;;;;;;;;;8358894;28;20140;-80
2023/04/06 09:43:11;;;;;;;10.98;4.78;;;;;;;;;;8368214;28;20080;-80
2023/04/06 09:47:17;;;;;;;11.85;6.15;;;;;;;;;;8372061;28;20484;-80
2023/04/06 09:51:21;;;;;;;10.27;5.68;;;;;;;;;;8362463;28;20053;-80
2023/04/06 09:55:28;;;;;;;11.82;6.28;;;;;;;;;;8353310;28;20053;-80
2023/04/06 09:59:41;;;;;;;9.57;6.45;;;;;;;;;;8354787;28;20500;-81
2023/04/06 10:03:52;;;;;;;12.68;7.18;;;;;;;;;;8364007;28;20096;-79
2023/04/06 10:07:59;;;;;;;8.63;5.35;;;;;;;;;;8369897;28;20049;-79
2023/04/06 10:12:03;;;;;;;8.73;4.93;;;;;;;;;;8372609;28;20120;-85
2023/04/06 10:16:08;;;;;;;10.93;5.88;;;;;;;;;;8353119;28;20102;-81
2023/04/06 10:20:20;;;;;;;9.88;5.75;;;;;;;;;;8372323;28;20045;-79
2023/04/06 10:24:23;;;;;;;9.30;6.00;;;;;;;;;;8372318;28;20451;-83
2023/04/06 10:28:27;;;;;;;12.45;6.20;;;;;;;;;;8372162;28;20049;-84
2023/04/06 10:32:37;;;;;;;9.93;5.85;;;;;;;;;;8370626;28;20040;-83
2023/04/06 10:36:41;;;;;;;11.88;6.43;;;;;;;;;;8371990;28;20049;-80
2023/04/06 10:40:44;;;;;;;10.38;5.90;;;;;;;;;;8372048;28;20041;-80
2023/04/06 10:44:51;;;;;;;9.93;6.50;;;;;;;;;;8368569;28;20068;-82
2023/04/06 10:48:54;;;;;;;12.52;6.80;;;;;;;;;;8366681;28;20059;-80
2023/04/06 10:53:03;;;;;;;10.10;6.28;;;;;;;;;;8366737;28;20378;-79
2023/04/06 10:57:06;;;;;;;15.88;9.52;;;;;;;;;;8366412;28;20446;-79
2023/04/06 11:01:12;;;;;;;11.32;6.93;;;;;;;;;;8366192;28;20623;-80
2023/04/06 11:05:16;;;;;;;12.30;6.90;;;;;;;;;;8366290;28;20131;-80
2023/04/06 11:09:27;;;;;;;13.10;7.05;;;;;;;;;;8365859;28;20424;-80
2023/04/06 11:13:39;;;;;;;14.30;8.67;;;;;;;;;;8365995;28;20140;-80
2023/04/06 11:17:41;;;;;;;15.88;9.75;;;;;;;;;;8366009;28;20081;-80
2023/04/06 11:21:47;;;;;;;9.35;6.35;;;;;;;;;;8365648;28;20051;-80
2023/04/06 11:25:53;;;;;;;15.38;8.45;;;;;;;;;;8339829;28;20470;-77
2023/04/06 11:29:56;;;;;;;17.55;11.10;;;;;;;;;;8365471;28;20045;-80
2023/04/06 11:33:59;;;;;;;19.67;13.75;;;;;;;;;;8365489;28;20053;-79
2023/04/06 11:38:05;;;;;;;17.67;10.35;;;;;;;;;;8364796;28;20068;-79
2023/04/06 11:42:10;;;;;;;16.90;11.68;;;;;;;;;;8365367;28;20351;-79
2023/04/06 11:46:19;;;;;;;23.02;9.07;;;;;;;;;;8364180;28;20053;-79
2023/04/06 11:50:22;;;;;;;15.68;8.88;;;;;;;;;;8364707;28;20408;-81
2023/04/06 11:54:32;;;;;;;11.38;8.02;;;;;;;;;;8364331;28;20101;-80
2023/04/06 11:58:36;;;;;;;13.57;8.45;;;;;;;;;;8363972;28;20049;-79
2023/04/06 12:02:40;;;;;;;13.43;8.18;;;;;;;;;;8363699;28;20040;-82
2023/04/06 12:06:42;;;;;;;19.27;9.85;;;;;;;;;;8363376;28;20055;-83
2023/04/06 12:10:45;;;;;;;15.60;9.32;;;;;;;;;;8362535;28;20135;-81
2023/04/06 12:14:49;;;;;;;16.95;9.82;;;;;;;;;;8363779;28;20041;-78
2023/04/06 12:18:52;;;;;;;14.63;8.00;;;;;;;;;;8363069;28;20068;-81
2023/04/06 12:22:55;;;;;;;16.27;10.20;;;;;;;;;;8364316;28;20378;-80
2023/04/06 12:26:58;;;;;;;18.65;12.13;;;;;;;;;;8363405;28;20080;-80
2023/04/06 12:31:02;;;;;;;20.08;11.23;;;;;;;;;;8362517;28;20041;-77
2023/04/06 12:35:08;;;;;;;13.10;8.45;;;;;;;;;;8363876;28;20114;-81
2023/04/06 12:39:11;;;;;;;16.20;9.05;;;;;;;;;;8363346;28;20048;-82
2023/04/06 12:43:15;;;;;;;18.35;11.40;;;;;;;;;;8362590;28;20141;-85
2023/04/06 12:47:19;;;;;;;23.40;15.50;;;;;;;;;;8363144;28;20049;-79
2023/04/06 12:51:22;;;;;;;14.35;10.02;;;;;;;;;;8362792;28;20464;-79
2023/04/06 12:55:26;;;;;;;16.83;10.95;;;;;;;;;;8345653;28;20049;-79
2023/04/06 12:59:34;;;;;;;11.70;7.82;;;;;;;;;;8313651;28;20038;-85
2023/04/06 13:03:38;;;;;;;16.00;10.48;;;;;;;;;;8317408;28;20410;-82
2023/04/06 13:07:41;;;;;;;17.40;11.63;;;;;;;;;;8338936;28;20040;-81
2023/04/06 13:11:45;;;;;;;13.02;8.55;;;;;;;;;;8362537;28;20068;-86
2023/04/06 13:15:48;;;;;;;15.40;10.35;;;;;;;;;;8361444;28;20412;-85
2023/04/06 13:19:52;;;;;;;13.98;9.57;;;;;;;;;;8361889;28;20040;-86
2023/04/06 13:23:56;;;;;;;16.83;11.30;;;;;;;;;;8361700;28;20041;-85
2023/04/06 13:27:59;;;;;;;19.23;13.35;;;;;;;;;;8362368;28;20045;-85
2023/04/06 13:32:02;;;;;;;15.57;9.75;;;;;;;;;;8360856;28;20106;-83
2023/04/06 13:36:08;;;;;;;21.05;12.95;;;;;;;;;;8336341;28;20098;-81
2023/04/06 13:40:12;;;;;;;19.88;12.02;;;;;;;;;;8362012;28;20467;-84
2023/04/06 13:44:15;;;;;;;19.42;12.43;;;;;;;;;;8361714;28;20059;-84
2023/04/06 13:48:18;;;;;;;17.98;12.98;;;;;;;;;;8360876;28;20044;-84
2023/04/06 13:52:22;;;;;;;19.65;12.48;;;;;;;;;;8361610;28;20045;-84
2023/04/06 13:56:26;;;;;;;20.35;13.05;;;;;;;;;;8361736;28;20477;-84
2023/04/06 14:00:29;;;;;;;19.38;12.57;;;;;;;;;;8361851;28;20474;-84
2023/04/06 14:04:31;;;;;;;18.70;12.55;;;;;;;;;;8361058;28;20119;-85
2023/04/06 14:08:36;;;;;;;19.35;12.32;;;;;;;;;;8350614;28;20057;-80
2023/04/06 14:12:39;;;;;;;16.63;11.00;;;;;;;;;;8352915;28;20041;-82
2023/04/06 14:16:43;;;;;;;19.73;13.75;;;;;;;;;;8338347;28;20053;-82
2023/04/06 14:20:46;;;;;;;20.83;14.57;;;;;;;;;;8351462;28;20045;-86
2023/04/06 14:24:51;;;;;;;21.05;14.57;;;;;;;;;;8354142;28;20145;-81
2023/04/06 14:28:54;;;;;;;21.85;14.00;;;;;;;;;;8367631;28;20047;-84
2023/04/06 14:32:58;;;;;;;17.42;13.52;;;;;;;;;;8352557;28;20552;-81
2023/04/06 14:37:01;;;;;;;22.23;14.18;;;;;;;;;;8343271;28;20858;-81
2023/04/06 14:41:06;;;;;;;22.08;14.57;;;;;;;;;;8338124;28;20202;-81
2023/04/06 14:45:10;;;;;;;19.60;12.13;;;;;;;;;;8366409;28;20090;-81
2023/04/06 14:49:13;;;;;;;25.65;16.83;;;;;;;;;;8328117;28;20045;-80
2023/04/06 14:53:16;;;;;;;24.33;15.27;;;;;;;;;;8350961;28;20750;-82
2023/04/06 14:57:20;;;;;;;24.52;16.38;;;;;;;;;;8355257;28;20185;-81
2023/04/06 15:01:23;;;;;;;19.63;11.18;;;;;;;;;;8365331;28;20053;-82
2023/04/06 15:05:26;;;;;;;18.95;12.30;;;;;;;;;;8365751;28;20041;-81
2023/04/06 15:09:30;;;;;;;27.48;16.55;;;;;;;;;;8348210;28;20063;-84
2023/04/06 15:13:34;;;;;;;26.45;15.43;;;;;;;;;;8363568;28;20516;-84
2023/04/06 15:17:37;;;;;;;21.60;15.00;;;;;;;;;;8335579;28;20202;-81
2023/04/06 15:21:40;;;;;;;17.90;12.75;;;;;;;;;;8342624;28;20041;-80
2023/04/06 15:25:43;;;;;;;14.88;11.77;;;;;;;;;;8334790;28;20041;-83
2023/04/06 15:29:48;;;;;;;18.27;13.48;;;;;;;;;;8297775;28;20513;-83
2023/04/06 15:33:51;;;;;;;20.15;14.57;;;;;;;;;;8310764;28;20116;-84
2023/04/06 15:37:54;;;;;;;16.30;10.88;;;;;;;;;;8313414;28;20406;-81
2023/04/06 15:41:57;;;;;;;18.73;13.18;;;;;;;;;;8320634;28;20134;-81
2023/04/06 15:46:01;;;;;;;25.52;16.65;;;;;;;;;;8320086;28;20049;-82
2023/04/06 15:50:06;;;;;;;23.65;17.63;;;;;;;;;;8320297;28;20061;-84
2023/04/06 15:54:08;;;;;;;16.70;11.93;;;;;;;;;;8322135;28;20092;-81
2023/04/06 15:58:11;;;;;;;18.85;13.82;;;;;;;;;;8314128;28;20042;-80
2023/04/06 16:02:15;;;;;;;19.63;13.52;;;;;;;;;;8310060;28;20053;-85
2023/04/06 16:06:18;;;;;;;21.52;12.35;;;;;;;;;;8310618;28;20484;-85
2023/04/06 16:10:21;;;;;;;20.20;14.40;;;;;;;;;;8300563;28;20056;-84
2023/04/06 16:14:25;;;;;;;22.48;15.65;;;;;;;;;;8322080;28;20153;-80
2023/04/06 16:18:30;;;;;;;24.67;16.70;;;;;;;;;;8310391;28;20056;-85
2023/04/06 16:22:34;;;;;;;26.73;17.50;;;;;;;;;;8301472;28;20053;-84
2023/04/06 16:26:36;;;;;;;27.60;17.63;;;;;;;;;;8322172;28;20394;-80
2023/04/06 16:30:40;;;;;;;25.83;16.67;;;;;;;;;;8327861;28;20196;-81
2023/04/06 16:34:46;;;;;;;22.42;16.67;;;;;;;;;;8320855;28;20107;-80
2023/04/06 16:38:49;;;;;;;32.38;19.10;;;;;;;;;;8325830;28;20042;-80
2023/04/06 16:42:54;;;;;;;45.35;27.08;;;;;;;;;;8324778;28;20049;-83
2023/04/06 16:46:57;;;;;;;51.75;32.42;;;;;;;;;;8306257;28;20056;-82
2023/04/06 16:51:06;;;;;;;75.65;41.80;;;;;;;;;;8308328;28;20046;-81
2023/04/06 16:55:11;;;;;;;45.95;27.50;;;;;;;;;;8332882;28;20049;-81
2023/04/06 16:59:14;;;;;;;45.60;26.38;;;;;;;;;;8312861;28;20045;-81
2023/04/06 17:03:18;;;;;;;49.38;29.38;;;;;;;;;;8338331;28;20073;-80
2023/04/06 17:07:25;;;;;;;64.05;37.67;;;;;;;;;;8324803;28;20049;-79
2023/04/06 17:11:29;;;;;;;47.47;29.02;;;;;;;;;;8333961;28;20053;-80
2023/04/06 17:15:33;;;;;;;39.45;22.33;;;;;;;;;;8327626;28;20500;-81
2023/04/06 17:19:36;;;;;;;43.28;24.85;;;;;;;;;;8312242;28;20494;-80
2023/04/06 17:23:41;;;;;;;41.95;23.52;;;;;;;;;;8324349;28;20541;-81
2023/04/06 17:27:44;;;;;;;48.55;29.10;;;;;;;;;;8303922;28;20041;-80
2023/04/06 17:31:51;;;;;;;46.17;30.38;;;;;;;;;;8302828;28;20058;-86
2023/04/06 17:36:01;;;;;;;46.85;29.55;;;;;;;;;;8324366;28;20037;-81
2023/04/06 17:40:08;;;;;;;50.20;24.42;;;;;;;;;;8321689;28;20049;-81
2023/04/06 17:44:11;;;;;;;69.45;30.50;;;;;;;;;;8324781;28;20151;-81
2023/04/06 17:48:15;;;;;;;67.57;31.08;;;;;;;;;;8324601;28;20129;-82
2023/04/06 17:52:18;;;;;;;86.88;37.47;;;;;;;;;;8335409;28;20500;-82
2023/04/06 17:56:23;;;;;;;116.93;47.13;;;;;;;;;;8325621;28;20486;-81
2023/04/06 18:00:26;;;;;;;60.83;34.10;;;;;;;;;;8309235;28;20055;-82
2023/04/06 18:04:30;;;;;;;52.47;30.48;;;;;;;;;;8330682;28;20056;-82
2023/04/06 18:08:33;;;;;;;50.20;29.52;;;;;;;;;;8317576;28;20162;-80
2023/04/06 18:12:37;;;;;;;59.15;32.75;;;;;;;;;;8323571;28;20049;-79
2023/04/06 18:16:41;;;;;;;57.95;29.92;;;;;;;;;;8336617;28;20133;-81
2023/04/06 18:20:45;;;;;;;49.47;26.00;;;;;;;;;;8326403;28;20049;-81
2023/04/06 18:24:58;;;;;;;51.85;30.30;;;;;;;;;;8329841;28;20049;-82
2023/04/06 18:29:04;;;;;;;54.28;28.55;;;;;;;;;;8329729;28;20049;-82
2023/04/06 18:33:08;;;;;;;42.53;26.65;;;;;;;;;;8318919;28;20056;-81
2023/04/06 18:37:10;;;;;;;49.72;28.48;;;;;;;;;;8310075;28;20050;-80
2023/04/06 18:41:14;;;;;;;66.72;37.22;;;;;;;;;;8309045;28;20072;-81
2023/04/06 18:45:18;;;;;;;56.72;34.08;;;;;;;;;;8301600;28;20049;-81
2023/04/06 18:49:21;;;;;;;60.10;32.83;;;;;;;;;;8330565;28;20478;-81
2023/04/06 18:53:24;;;;;;;41.13;25.80;;;;;;;;;;8332043;28;20054;-82
2023/04/06 18:57:27;;;;;;;44.10;27.17;;;;;;;;;;8311289;28;20045;-85
2023/04/06 19:01:34;;;;;;;48.10;27.80;;;;;;;;;;8312745;28;20561;-84
2023/04/06 19:05:37;;;;;;;51.20;30.48;;;;;;;;;;8326137;28;20140;-81
2023/04/06 19:09:40;;;;;;;67.97;36.53;;;;;;;;;;8323589;28;20121;-80
2023/04/06 19:13:48;;;;;;;48.67;27.77;;;;;;;;;;8330103;28;20053;-80
2023/04/06 19:17:53;;;;;;;37.80;23.13;;;;;;;;;;8315862;28;20057;-81
2023/04/06 19:21:56;;;;;;;42.33;25.73;;;;;;;;;;8325480;28;20045;-81
2023/04/06 19:25:59;;;;;;;39.08;23.58;;;;;;;;;;8312005;28;20060;-81
2023/04/06 19:30:02;;;;;;;39.95;22.02;;;;;;;;;;8339250;28;20045;-81
2023/04/06 19:34:07;;;;;;;40.35;25.30;;;;;;;;;;8297640;28;20136;-80
2023/04/06 19:38:10;;;;;;;33.75;20.35;;;;;;;;;;8314298;28;20497;-80
2023/04/06 19:42:14;;;;;;;37.20;23.67;;;;;;;;;;8312013;28;20849;-82
2023/04/06 19:46:17;;;;;;;40.05;24.27;;;;;;;;;;8325446;28;20595;-81
2023/04/06 19:50:22;;;;;;;40.72;24.08;;;;;;;;;;8327232;28;20564;-80
2023/04/06 19:54:25;;;;;;;44.65;25.60;;;;;;;;;;8313116;28;20041;-82
2023/04/06 19:58:28;;;;;;;47.22;26.73;;;;;;;;;;8336513;28;20043;-81
2023/04/06 20:02:31;;;;;;;48.95;27.80;;;;;;;;;;8363515;28;20041;-80
2023/04/06 20:06:36;;;;;;;39.97;23.50;;;;;;;;;;8364282;28;20076;-81
2023/04/06 20:10:38;;;;;;;41.55;24.05;;;;;;;;;;8364103;28;20064;-81
2023/04/06 20:14:41;;;;;;;31.35;19.10;;;;;;;;;;8364083;28;20045;-80
2023/04/06 20:18:44;;;;;;;32.20;19.50;;;;;;;;;;8363887;28;20060;-82
2023/04/06 20:22:49;;;;;;;36.13;22.42;;;;;;;;;;8363838;28;20041;-81
2023/04/06 20:26:52;;;;;;;32.20;18.67;;;;;;;;;;8363199;28;20053;-82
2023/04/06 20:30:55;;;;;;;32.60;20.38;;;;;;;;;;8362856;28;20049;-81
2023/04/06 20:34:58;;;;;;;44.83;25.85;;;;;;;;;;8363436;28;20633;-80
2023/04/06 20:39:03;;;;;;;38.00;22.08;;;;;;;;;;8362977;28;20044;-81
2023/04/06 20:43:08;;;;;;;32.85;19.50;;;;;;;;;;8363914;28;20534;-80
2023/04/06 20:47:11;;;;;;;42.92;24.33;;;;;;;;;;8363548;28;20520;-79
2023/04/06 20:51:23;;;;;;;42.03;23.10;;;;;;;;;;8363039;28;20052;-81
2023/04/06 20:55:27;;;;;;;34.50;20.50;;;;;;;;;;8363076;28;20045;-81
2023/04/06 20:59:30;;;;;;;32.33;18.75;;;;;;;;;;8349561;28;20135;-81
2023/04/06 21:03:33;;;;;;;40.03;20.98;;;;;;;;;;8362905;28;20051;-81
2023/04/06 21:07:37;;;;;;;30.45;18.55;;;;;;;;;;8338752;28;20044;-81
2023/04/06 21:11:41;;;;;;;25.38;16.77;;;;;;;;;;8362916;28;20477;-81
2023/04/06 21:15:44;;;;;;;26.20;16.88;;;;;;;;;;8357828;28;20140;-81
2023/04/06 21:19:50;;;;;;;29.83;16.65;;;;;;;;;;8343989;28;20053;-82
2023/04/06 21:23:54;;;;;;;34.65;19.92;;;;;;;;;;8362303;28;20088;-82
2023/04/06 21:27:58;;;;;;;30.67;17.58;;;;;;;;;;8360992;28;20052;-82
2023/04/06 21:32:01;;;;;;;33.92;19.38;;;;;;;;;;8361250;28;20045;-80
2023/04/06 21:36:05;;;;;;;30.75;17.80;;;;;;;;;;8362053;28;20049;-81
2023/04/06 21:40:09;;;;;;;29.20;18.00;;;;;;;;;;8361894;28;20598;-81
2023/04/06 21:44:14;;;;;;;29.75;17.30;;;;;;;;;;8362484;28;20053;-81
2023/04/06 21:48:16;;;;;;;31.98;18.02;;;;;;;;;;8359825;28;20128;-81
2023/04/06 21:52:19;;;;;;;57.83;19.33;;;;;;;;;;8362214;28;20472;-80
2023/04/06 21:56:23;;;;;;;31.77;18.20;;;;;;;;;;8361316;28;20037;-81
2023/04/06 22:00:27;;;;;;;26.98;16.90;;;;;;;;;;8361761;28;20056;-81
2023/04/06 22:04:31;;;;;;;31.05;18.63;;;;;;;;;;8361293;28;20152;-82
2023/04/06 22:08:34;;;;;;;27.50;16.38;;;;;;;;;;8361098;28;20045;-81
2023/04/06 22:12:37;;;;;;;29.38;17.52;;;;;;;;;;8361034;28;20045;-81
2023/04/06 22:16:41;;;;;;;27.80;17.13;;;;;;;;;;8361557;28;20057;-82
2023/04/06 22:20:44;;;;;;;34.10;18.45;;;;;;;;;;8360761;28;20045;-81
2023/04/06 22:24:47;;;;;;;30.35;18.92;;;;;;;;;;8361103;28;20048;-82
2023/04/06 22:28:50;;;;;;;28.92;18.50;;;;;;;;;;8360908;28;20041;-81
2023/04/06 22:32:54;;;;;;;31.58;18.20;;;;;;;;;;8360971;28;20087;-81
2023/04/06 22:36:57;;;;;;;35.25;20.60;;;;;;;;;;8361126;28;20041;-81
2023/04/06 22:41:00;;;;;;;34.28;19.92;;;;;;;;;;8364890;28;20044;-82
2023/04/06 22:45:03;;;;;;;30.05;19.27;;;;;;;;;;8344209;28;20514;-81
2023/04/06 22:49:06;;;;;;;27.48;17.75;;;;;;;;;;8362186;28;20059;-83
2023/04/06 22:53:09;;;;;;;25.30;15.90;;;;;;;;;;8366311;28;20075;-81
2023/04/06 22:57:12;;;;;;;26.73;16.60;;;;;;;;;;8366670;28;20045;-81
2023/04/06 23:01:15;;;;;;;23.00;15.35;;;;;;;;;;8366397;28;20041;-81
2023/04/06 23:05:19;;;;;;;24.90;16.35;;;;;;;;;;8366093;28;20049;-81
2023/04/06 23:09:22;;;;;;;21.80;13.35;;;;;;;;;;8366077;28;20107;-84
2023/04/06 23:13:25;;;;;;;27.80;16.63;;;;;;;;;;8366061;28;20049;-81
2023/04/06 23:17:28;;;;;;;24.05;14.27;;;;;;;;;;8365697;28;20056;-80
2023/04/06 23:21:32;;;;;;;24.50;14.13;;;;;;;;;;8365775;28;20071;-81
2023/04/06 23:25:35;;;;;;;18.95;12.68;;;;;;;;;;8365325;28;20044;-83
2023/04/06 23:29:38;;;;;;;20.27;12.50;;;;;;;;;;8349452;28;20049;-84
2023/04/06 23:33:41;;;;;;;23.50;14.85;;;;;;;;;;8349190;28;20055;-82
2023/04/06 23:37:45;;;;;;;21.65;13.75;;;;;;;;;;8323593;28;20042;-82
2023/04/06 23:41:48;;;;;;;34.30;14.18;;;;;;;;;;8321065;28;20045;-82
2023/04/06 23:45:50;;;;;;;21.48;12.40;;;;;;;;;;8337605;28;20051;-82